createdAt,value
2023-03-31T21:18:31.076Z,53.53
2023-03-31T21:20:33.887Z,53.67
2023-03-31T21:22:35.470Z,53.90
2023-03-31T21:24:37.042Z,53.70
2023-03-31T21:26:38.901Z,53.83
2023-03-31T21:28:40.704Z,54.02
2023-03-31T21:30:49.164Z,53.93
2023-03-31T21:32:50.682Z,54.04
2023-03-31T21:34:52.153Z,53.69
2023-03-31T21:36:54.010Z,53.76
2023-03-31T21:38:56.007Z,54.23
2023-03-31T21:40:57.573Z,54.18
2023-03-31T21:42:59.046Z,54.23
2023-03-31T21:45:00.527Z,54.34
2023-03-31T21:47:02.147Z,55.17
2023-03-31T21:49:03.796Z,55.24
2023-03-31T21:51:05.724Z,54.37
2023-03-31T21:53:07.840Z,55.02
2023-03-31T21:55:09.474Z,55.15
2023-03-31T21:57:11.420Z,54.95
2023-03-31T21:59:12.980Z,54.57
2023-03-31T22:01:15.267Z,54.83
2023-03-31T22:05:24.293Z,54.43
2023-03-31T22:07:25.795Z,54.86
2023-03-31T22:09:27.697Z,54.74
2023-03-31T22:11:29.186Z,54.73
2023-03-31T22:13:30.682Z,54.74
2023-03-31T22:15:32.358Z,54.68
2023-03-31T22:17:34.240Z,54.48
2023-03-31T22:19:35.970Z,54.40
2023-03-31T22:21:37.449Z,54.70
2023-03-31T22:23:39.405Z,54.30
2023-03-31T22:25:40.888Z,54.16
2023-03-31T22:27:42.497Z,54.53
2023-03-31T22:29:44.070Z,54.34
2023-03-31T22:31:45.615Z,54.84
2023-03-31T22:33:48.543Z,55.02
2023-03-31T22:35:51.051Z,55.34
2023-03-31T22:37:52.653Z,55.25
2023-03-31T22:39:54.159Z,54.87
2023-03-31T22:41:55.696Z,54.50
2023-03-31T22:43:57.171Z,54.56
2023-03-31T22:46:02.440Z,54.94
2023-03-31T22:48:05.790Z,55.77
2023-03-31T22:50:07.464Z,55.95
2023-03-31T22:52:08.949Z,56.23
2023-03-31T22:54:16.888Z,55.98
2023-03-31T22:59:10.507Z,55.32
2023-03-31T23:01:14.708Z,55.53
2023-03-31T23:03:16.222Z,55.59
2023-03-31T23:05:17.834Z,55.12
2023-03-31T23:07:21.919Z,55.07
2023-03-31T23:09:23.891Z,55.05
2023-03-31T23:11:26.200Z,55.03
2023-03-31T23:13:28.020Z,55.31
2023-03-31T23:15:29.807Z,55.68
2023-03-31T23:17:49.943Z,56.08
2023-03-31T23:19:51.462Z,56.25
2023-03-31T23:21:52.919Z,56.18
2023-03-31T23:23:55.662Z,55.65
2023-03-31T23:26:00.245Z,55.51
2023-03-31T23:28:02.093Z,55.88
2023-03-31T23:30:03.956Z,55.79
2023-03-31T23:32:05.561Z,55.76
2023-03-31T23:34:07.380Z,56.37
2023-03-31T23:36:09.367Z,55.51
2023-03-31T23:38:11.019Z,55.42
2023-03-31T23:40:13.616Z,55.76
2023-03-31T23:42:19.832Z,55.47
2023-03-31T23:44:21.401Z,55.25
2023-03-31T23:46:24.435Z,55.25
2023-03-31T23:48:25.990Z,55.16
2023-03-31T23:50:28.460Z,55.19
2023-03-31T23:52:30.834Z,55.45
2023-03-31T23:54:32.811Z,56.18
2023-03-31T23:56:34.613Z,56.05
2023-03-31T23:58:36.448Z,56.33
